createdAt,value
2019-04-16T00:01:15.359Z,101572.46
2019-04-16T00:03:48.019Z,101576.24
2019-04-16T00:06:27.502Z,101572.55
2019-04-16T00:09:35.511Z,101574.31
2019-04-16T00:12:24.378Z,101570.81
2019-04-16T00:14:56.669Z,101576.05
2019-04-16T00:17:44.335Z,101578.78
2019-04-16T00:20:14.272Z,101573.39
2019-04-16T00:22:55.362Z,101573.59
2019-04-16T00:25:55.480Z,101561.93
2019-04-16T00:28:30.457Z,101559.36
2019-04-16T00:31:11.580Z,101555.97
2019-04-16T00:33:53.844Z,101561.02
2019-04-16T00:36:24.507Z,101558.34
2019-04-16T00:38:55.307Z,101552.19
2019-04-16T00:41:26.112Z,101547.62
2019-04-16T00:43:58.841Z,101547.52
2019-04-16T00:46:29.551Z,101544.33
2019-04-16T00:49:00.127Z,101539.63
2019-04-16T00:51:30.787Z,101538.06
2019-04-16T00:54:01.366Z,101544.41
2019-04-16T00:56:31.974Z,101541.02
2019-04-16T00:59:02.578Z,101531.33
2019-04-16T01:01:34.303Z,101528.79
2019-04-16T01:04:05.557Z,101531.33
2019-04-16T01:06:37.922Z,101526.34
2019-04-16T01:09:09.094Z,101526.53
2019-04-16T01:11:41.501Z,101524.52
2019-04-16T01:14:12.168Z,101529.72
2019-04-16T01:16:44.047Z,101521.95
2019-04-16T01:19:15.563Z,101519.67
2019-04-16T01:21:46.704Z,101515.48
2019-04-16T01:24:19.926Z,101517.24
2019-04-16T01:26:49.766Z,101513.71
2019-04-16T01:29:20.452Z,101508.86
2019-04-16T01:32:11.245Z,101507.41
2019-04-16T01:34:47.114Z,101516.92
2019-04-16T01:37:19.936Z,101508.85
2019-04-16T01:39:52.214Z,101511.62
2019-04-16T01:42:32.533Z,101502.13
2019-04-16T01:45:03.164Z,101500.39
2019-04-16T01:47:37.096Z,101500.78
2019-04-16T01:50:12.933Z,101495.55
2019-04-16T01:52:40.854Z,101500.70
2019-04-16T01:55:17.364Z,101498.23
2019-04-16T01:57:47.990Z,101493.78
2019-04-16T02:00:24.711Z,101496.12
2019-04-16T02:03:02.148Z,101500.69
2019-04-16T02:05:34.751Z,101490.63
2019-04-16T02:08:05.564Z,101489.89
2019-04-16T02:10:38.477Z,101489.12
2019-04-16T02:13:08.826Z,101483.63
2019-04-16T02:15:39.456Z,101485.08
2019-04-16T02:18:16.186Z,101483.53
2019-04-16T02:20:46.785Z,101485.98
2019-04-16T02:23:17.539Z,101483.89
2019-04-16T02:25:51.331Z,101478.16
2019-04-16T02:28:22.045Z,101488.21
2019-04-16T02:30:54.725Z,101482.27
2019-04-16T02:33:25.312Z,101478.94
2019-04-16T02:35:56.044Z,101477.73
2019-04-16T02:38:26.718Z,101477.16
2019-04-16T02:40:57.422Z,101486.71
2019-04-16T02:43:28.074Z,101485.50
2019-04-16T02:45:58.942Z,101481.41
2019-04-16T02:48:35.457Z,101480.76
2019-04-16T02:51:08.619Z,101476.63
2019-04-16T02:53:58.557Z,101469.78
2019-04-16T02:56:37.155Z,101472.91
2019-04-16T02:59:25.559Z,101469.70
2019-04-16T03:02:27.816Z,101463.19
2019-04-16T03:05:06.103Z,101465.52
2019-04-16T03:07:37.999Z,101464.39
2019-04-16T03:10:12.063Z,101461.17
2019-04-16T03:12:41.195Z,101460.26
2019-04-16T03:15:11.897Z,101449.86
2019-04-16T03:17:44.172Z,101448.45
2019-04-16T03:20:20.735Z,101449.75
2019-04-16T03:22:51.963Z,101449.03
2019-04-16T03:25:22.569Z,101441.86
2019-04-16T03:27:55.114Z,101446.70
2019-04-16T03:30:25.651Z,101444.58
2019-04-16T03:32:56.356Z,101444.41
2019-04-16T03:35:26.983Z,101437.23
2019-04-16T03:37:57.637Z,101440.09
2019-04-16T03:40:29.236Z,101435.36
2019-04-16T03:43:03.955Z,101440.05
2019-04-16T03:45:45.349Z,101438.80
2019-04-16T03:48:20.657Z,101440.81
2019-04-16T03:50:51.352Z,101431.70
2019-04-16T03:53:22.069Z,101430.52
2019-04-16T03:55:54.563Z,101432.50
2019-04-16T03:58:30.415Z,101429.42
2019-04-16T04:01:02.146Z,101424.93
2019-04-16T04:03:34.934Z,101424.81
2019-04-16T04:06:11.123Z,101423.98
2019-04-16T04:08:41.835Z,101429.06
2019-04-16T04:11:12.653Z,101425.08
2019-04-16T04:13:43.307Z,101428.83
2019-04-16T04:16:13.899Z,101428.06
2019-04-16T04:18:45.509Z,101424.05
2019-04-16T04:21:25.421Z,101420.73
2019-04-16T04:24:08.583Z,101425.98
2019-04-16T04:26:42.489Z,101428.88
2019-04-16T04:29:13.209Z,101425.27
2019-04-16T04:31:43.847Z,101427.77
2019-04-16T04:34:16.971Z,101424.84
2019-04-16T04:36:49.094Z,101431.39
2019-04-16T04:39:21.820Z,101429.82
2019-04-16T04:41:56.384Z,101430.61
2019-04-16T04:44:26.824Z,101435.81
2019-04-16T04:46:57.462Z,101435.59
2019-04-16T04:49:30.356Z,101433.52
2019-04-16T04:52:00.834Z,101435.36
2019-04-16T04:54:37.393Z,101433.49
2019-04-16T04:57:08.066Z,101434.25
2019-04-16T04:59:38.735Z,101430.67
2019-04-16T05:02:10.586Z,101436.66
2019-04-16T05:05:01.651Z,101434.08
2019-04-16T05:07:34.541Z,101436.83
2019-04-16T05:10:10.034Z,101441.61
2019-04-16T05:12:54.173Z,101430.56
2019-04-16T05:15:30.175Z,101438.45
2019-04-16T05:18:00.938Z,101437.78
2019-04-16T05:20:41.430Z,101438.34
2019-04-16T05:23:12.547Z,101444.86
2019-04-16T05:25:48.109Z,101455.62
2019-04-16T05:28:32.760Z,101451.79
2019-04-16T05:31:12.976Z,101449.70
2019-04-16T05:33:58.705Z,101454.94
2019-04-16T05:36:27.544Z,101457.20
2019-04-16T05:38:58.733Z,101455.03
2019-04-16T05:41:31.469Z,101457.68
2019-04-16T05:44:02.232Z,101454.81
2019-04-16T05:46:34.530Z,101451.09
2019-04-16T05:49:05.682Z,101448.27
2019-04-16T05:51:36.834Z,101450.10
2019-04-16T05:54:13.274Z,101446.39
2019-04-16T05:56:49.223Z,101449.32
2019-04-16T05:59:19.972Z,101446.13
2019-04-16T06:01:57.198Z,101446.39
2019-04-16T06:04:28.696Z,101448.00
2019-04-16T06:07:02.874Z,101445.72
2019-04-16T06:09:33.025Z,101443.90
2019-04-16T06:12:09.505Z,101440.58
2019-04-16T06:14:53.844Z,101446.59
2019-04-16T06:17:41.000Z,101440.75
2019-04-16T06:20:22.964Z,101446.67
2019-04-16T06:23:00.867Z,101445.88
2019-04-16T06:25:41.012Z,101448.03
2019-04-16T06:28:10.856Z,101445.55
2019-04-16T06:30:44.258Z,101447.17
2019-04-16T06:33:19.734Z,101451.95
2019-04-16T06:35:59.153Z,101451.40
2019-04-16T06:38:31.399Z,101446.03
2019-04-16T06:41:06.568Z,101442.94
2019-04-16T06:43:48.748Z,101439.97
2019-04-16T06:46:21.131Z,101438.02
2019-04-16T06:49:09.728Z,101443.56
2019-04-16T06:51:45.020Z,101441.48
2019-04-16T06:54:39.697Z,101439.31
2019-04-16T06:57:14.361Z,101436.03
2019-04-16T07:00:02.461Z,101437.80
2019-04-16T07:03:03.131Z,101431.83
2019-04-16T07:05:50.415Z,101424.87
2019-04-16T07:08:37.403Z,101425.59
2019-04-16T07:11:03.704Z,101424.39
2019-04-16T07:13:45.654Z,101423.98
2019-04-16T07:16:16.420Z,101417.23
2019-04-16T07:18:54.363Z,101418.53
2019-04-16T07:21:25.468Z,101413.45
2019-04-16T07:23:58.228Z,101412.48
2019-04-16T07:26:46.462Z,101408.67
2019-04-16T07:29:31.577Z,101402.88
2019-04-16T07:32:23.518Z,101404.98
2019-04-16T07:34:56.290Z,101395.09
2019-04-16T07:37:46.744Z,101396.56
2019-04-16T07:40:35.687Z,101396.61
2019-04-16T07:43:09.128Z,101389.41
2019-04-16T07:45:44.167Z,101388.41
2019-04-16T07:48:27.512Z,101383.83
2019-04-16T07:51:05.633Z,101387.83
2019-04-16T07:53:53.313Z,101383.84
2019-04-16T07:56:27.146Z,101391.36
2019-04-16T07:59:01.297Z,101384.75
2019-04-16T08:01:31.305Z,101385.55
2019-04-16T08:04:04.052Z,101386.30
2019-04-16T08:06:38.970Z,101386.98
2019-04-16T08:09:21.012Z,101380.51
2019-04-16T08:11:52.853Z,101379.66
2019-04-16T08:14:36.980Z,101381.98
2019-04-16T08:17:09.694Z,101375.11
2019-04-16T08:19:44.672Z,101377.67
2019-04-16T08:22:16.722Z,101388.08
2019-04-16T08:25:03.313Z,101380.05
2019-04-16T08:27:38.135Z,101382.97
2019-04-16T08:30:12.564Z,101385.61
2019-04-16T08:32:45.850Z,101385.51
2019-04-16T08:35:15.745Z,101385.23
2019-04-16T08:37:49.178Z,101382.77
2019-04-16T08:40:18.980Z,101383.47
2019-04-16T08:42:49.597Z,101372.55
2019-04-16T08:45:26.362Z,101374.58
2019-04-16T08:47:59.110Z,101368.42
2019-04-16T08:50:31.113Z,101369.67
2019-04-16T08:53:04.635Z,101370.53
2019-04-16T08:55:40.364Z,101366.80
2019-04-16T08:58:12.967Z,101366.88
2019-04-16T09:00:52.448Z,101366.44
2019-04-16T09:03:23.418Z,101362.19
2019-04-16T09:05:54.161Z,101364.48
2019-04-16T09:08:36.706Z,101360.94
2019-04-16T09:11:21.848Z,101359.16
2019-04-16T09:13:48.043Z,101354.52
2019-04-16T09:16:18.804Z,101358.05
2019-04-16T09:18:54.237Z,101349.44
2019-04-16T09:21:27.815Z,101349.44
2019-04-16T09:24:15.515Z,101348.60
2019-04-16T09:26:47.817Z,101346.22
2019-04-16T09:29:52.851Z,101348.17
2019-04-16T09:32:47.194Z,101348.23
2019-04-16T09:35:37.400Z,101344.02
2019-04-16T09:38:26.481Z,101338.11
2019-04-16T09:41:13.711Z,101337.02
2019-04-16T09:44:01.033Z,101329.66
2019-04-16T09:46:50.325Z,101331.03
2019-04-16T09:49:06.178Z,101323.99
2019-04-16T09:51:37.281Z,101319.48
2019-04-16T09:54:19.478Z,101315.53
2019-04-16T09:56:59.751Z,101315.77
2019-04-16T09:59:40.424Z,101311.34
2019-04-16T10:02:20.124Z,101305.92
2019-04-16T10:04:54.068Z,101304.47
2019-04-16T10:07:26.057Z,101300.18
2019-04-16T10:09:59.124Z,101314.60
2019-04-16T10:12:36.207Z,101298.88
2019-04-16T10:15:07.712Z,101294.63
2019-04-16T10:17:38.312Z,101293.41
2019-04-16T10:20:10.323Z,101292.44
2019-04-16T10:22:41.071Z,101297.66
2019-04-16T10:25:15.106Z,101289.16
2019-04-16T10:27:47.536Z,101289.19
2019-04-16T10:30:23.674Z,101290.81
2019-04-16T10:32:55.325Z,101282.41
2019-04-16T10:35:32.049Z,101275.37
2019-04-16T10:38:04.638Z,101268.80
2019-04-16T10:40:42.821Z,101263.98
2019-04-16T10:43:24.409Z,101269.79
2019-04-16T10:45:57.848Z,101261.77
2019-04-16T10:48:50.796Z,101273.78
2019-04-16T10:51:23.150Z,101260.03
2019-04-16T10:53:58.554Z,101256.82
2019-04-16T10:56:48.222Z,101251.23
2019-04-16T10:59:50.991Z,101246.99
2019-04-16T11:02:40.138Z,101244.24
2019-04-16T11:05:19.271Z,101239.01
2019-04-16T11:07:55.391Z,101233.87
2019-04-16T11:10:27.603Z,101243.74
2019-04-16T11:12:59.078Z,101239.61
2019-04-16T11:15:30.681Z,101235.41
2019-04-16T11:18:19.568Z,101240.58
2019-04-16T11:20:50.315Z,101239.21
2019-04-16T11:23:21.190Z,101232.67
2019-04-16T11:25:52.189Z,101231.02
2019-04-16T11:28:22.966Z,101235.56
2019-04-16T11:31:04.899Z,101238.38
2019-04-16T11:33:52.555Z,101231.15
2019-04-16T11:36:30.994Z,101228.34
2019-04-16T11:39:01.753Z,101224.04
2019-04-16T11:41:33.978Z,101231.23
2019-04-16T11:44:23.275Z,101224.89
2019-04-16T11:46:53.896Z,101218.47
2019-04-16T11:49:30.479Z,101230.59
2019-04-16T11:52:11.116Z,101227.48
2019-04-16T11:54:46.843Z,101230.45
2019-04-16T11:57:15.616Z,101226.58
2019-04-16T12:00:07.468Z,101219.73
2019-04-16T12:02:40.872Z,101225.21
2019-04-16T12:05:14.917Z,101221.74
2019-04-16T12:07:50.370Z,101226.50
2019-04-16T12:10:40.747Z,101227.15
2019-04-16T12:13:31.925Z,101221.71
2019-04-16T12:16:14.046Z,101229.34
2019-04-16T12:19:03.582Z,101215.59
2019-04-16T12:21:39.730Z,101230.16
2019-04-16T12:24:29.929Z,101219.12
2019-04-16T12:27:18.772Z,101225.34
2019-04-16T12:30:09.441Z,101226.61
2019-04-16T12:32:59.770Z,101233.03
2019-04-16T12:35:37.830Z,101229.47
2019-04-16T12:38:13.118Z,101231.31
2019-04-16T12:40:44.328Z,101226.89
2019-04-16T12:43:16.752Z,101234.52
2019-04-16T12:46:14.782Z,101232.97
2019-04-16T12:48:47.047Z,101227.58
2019-04-16T12:51:31.024Z,101225.34
2019-04-16T12:54:29.899Z,101235.27
2019-04-16T12:57:21.692Z,101232.31
2019-04-16T13:00:15.082Z,101222.50
2019-04-16T13:02:58.944Z,101229.47
2019-04-16T13:05:50.892Z,101224.22
2019-04-16T13:08:30.258Z,101225.58
2019-04-16T13:11:13.391Z,101236.27
2019-04-16T13:13:49.964Z,101226.61
2019-04-16T13:16:35.743Z,101237.52
2019-04-16T13:19:08.660Z,101234.27
2019-04-16T13:21:50.321Z,101233.84
2019-04-16T13:24:22.860Z,101225.74
2019-04-16T13:26:55.300Z,101225.62
2019-04-16T13:29:29.465Z,101231.03
2019-04-16T13:32:00.460Z,101227.98
2019-04-16T13:34:33.333Z,101228.95
2019-04-16T13:37:05.285Z,101229.35
2019-04-16T13:39:50.026Z,101221.41
2019-04-16T13:42:22.939Z,101225.14
2019-04-16T13:45:15.146Z,101223.71
2019-04-16T13:47:36.194Z,101227.55
2019-04-16T13:50:11.361Z,101224.09
2019-04-16T13:52:59.510Z,101220.36
2019-04-16T13:55:38.242Z,101219.60
2019-04-16T13:58:22.559Z,101213.32
2019-04-16T14:00:55.054Z,101219.86
2019-04-16T14:03:25.852Z,101229.38
2019-04-16T14:05:56.772Z,101222.12
2019-04-16T14:08:27.630Z,101219.38
2019-04-16T14:10:59.115Z,101217.98
2019-04-16T14:13:30.319Z,101212.92
2019-04-16T14:16:11.713Z,101216.04
2019-04-16T14:18:50.431Z,101208.91
2019-04-16T14:21:22.313Z,101213.36
2019-04-16T14:23:54.197Z,101212.47
2019-04-16T14:26:24.964Z,101212.75
2019-04-16T14:28:57.027Z,101209.19
2019-04-16T14:31:27.760Z,101209.76
2019-04-16T14:34:00.313Z,101217.60
2019-04-16T14:36:32.311Z,101217.45
2019-04-16T14:39:13.311Z,101219.55
2019-04-16T14:41:49.931Z,101216.16
2019-04-16T14:44:21.095Z,101208.52
2019-04-16T14:46:52.284Z,101208.45
2019-04-16T14:49:24.324Z,101205.52
2019-04-16T14:51:58.008Z,101209.55
2019-04-16T14:54:32.487Z,101208.30
2019-04-16T14:57:10.170Z,101207.23
2019-04-16T14:59:56.207Z,101205.78
2019-04-16T15:02:41.668Z,101211.83
2019-04-16T15:05:15.748Z,101211.14
2019-04-16T15:07:48.096Z,101208.10
2019-04-16T15:10:40.980Z,101204.22
2019-04-16T15:13:25.688Z,101209.47
2019-04-16T15:16:08.728Z,101204.42
2019-04-16T15:18:36.144Z,101211.27
2019-04-16T15:21:24.298Z,101211.03
2019-04-16T15:24:07.106Z,101205.83
2019-04-16T15:26:45.421Z,101208.94
2019-04-16T15:29:20.816Z,101204.34
2019-04-16T15:32:10.357Z,101203.97
2019-04-16T15:34:43.998Z,101202.55
2019-04-16T15:37:22.815Z,101209.89
2019-04-16T15:39:59.285Z,101199.44
2019-04-16T15:42:48.479Z,101213.34
2019-04-16T15:45:25.501Z,101212.48
2019-04-16T15:48:21.392Z,101215.86
2019-04-16T15:50:59.851Z,101215.73
2019-04-16T15:53:47.722Z,101216.46
2019-04-16T15:56:23.862Z,101216.77
2019-04-16T15:59:03.067Z,101217.16
2019-04-16T16:01:51.929Z,101217.41
2019-04-16T16:04:24.431Z,101218.55
2019-04-16T16:06:58.928Z,101210.42
2019-04-16T16:09:31.372Z,101212.89
2019-04-16T16:12:09.879Z,101221.94
2019-04-16T16:14:39.295Z,101217.34
2019-04-16T16:17:13.575Z,101217.53
2019-04-16T16:19:48.097Z,101224.81
2019-04-16T16:22:20.320Z,101223.22
2019-04-16T16:24:52.103Z,101226.82
2019-04-16T16:27:25.043Z,101222.72
2019-04-16T16:29:56.825Z,101233.11
2019-04-16T16:32:27.588Z,101231.75
2019-04-16T16:34:59.553Z,101232.24
2019-04-16T16:37:30.355Z,101233.53
2019-04-16T16:40:01.120Z,101233.41
2019-04-16T16:42:34.257Z,101238.15
2019-04-16T16:45:05.429Z,101238.88
2019-04-16T16:47:39.846Z,101240.66
2019-04-16T16:50:13.324Z,101243.16
2019-04-16T16:52:53.513Z,101248.19
2019-04-16T16:55:38.726Z,101245.80
2019-04-16T16:58:25.460Z,101249.58
2019-04-16T17:01:00.012Z,101248.62
2019-04-16T17:03:44.105Z,101251.73
2019-04-16T17:06:16.817Z,101249.89
2019-04-16T17:08:50.433Z,101250.53
2019-04-16T17:11:21.534Z,101253.90
2019-04-16T17:13:58.014Z,101273.83
2019-04-16T17:16:35.304Z,101277.29
2019-04-16T17:19:07.027Z,101279.58
2019-04-16T17:21:37.672Z,101282.06
2019-04-16T17:24:09.378Z,101292.69
2019-04-16T17:26:40.125Z,101297.77
2019-04-16T17:29:10.818Z,101307.08
2019-04-16T17:31:42.518Z,101319.27
2019-04-16T17:34:19.472Z,101327.33
2019-04-16T17:36:50.293Z,101335.75
2019-04-16T17:39:42.277Z,101341.40
2019-04-16T17:42:15.334Z,101344.36
2019-04-16T17:45:00.190Z,101351.78
2019-04-16T17:47:50.814Z,101356.97
2019-04-16T17:50:30.341Z,101357.68
2019-04-16T17:53:18.125Z,101369.05
2019-04-16T17:55:57.596Z,101365.94
2019-04-16T17:58:36.503Z,101366.89
2019-04-16T18:01:25.379Z,101377.22
2019-04-16T18:03:59.863Z,101379.54
2019-04-16T18:06:35.628Z,101392.14
2019-04-16T18:09:18.050Z,101392.09
2019-04-16T18:12:12.030Z,101398.82
2019-04-16T18:14:59.235Z,101404.72
2019-04-16T18:17:47.723Z,101405.77
2019-04-16T18:20:25.167Z,101408.33
2019-04-16T18:23:03.454Z,101416.41
2019-04-16T18:25:57.835Z,101417.89
2019-04-16T18:28:39.022Z,101428.90
2019-04-16T18:31:31.535Z,101437.13
2019-04-16T18:34:24.734Z,101434.88
2019-04-16T18:37:04.046Z,101455.59
2019-04-16T18:39:41.760Z,101451.00
2019-04-16T18:42:31.874Z,101460.40
2019-04-16T18:45:08.332Z,101465.41
2019-04-16T18:48:01.062Z,101470.14
2019-04-16T18:50:27.911Z,101476.41
2019-04-16T18:53:02.698Z,101485.55
2019-04-16T18:55:36.820Z,101489.41
2019-04-16T18:58:11.102Z,101493.93
2019-04-16T19:00:48.767Z,101495.94
2019-04-16T19:03:21.567Z,101501.73
2019-04-16T19:05:55.026Z,101503.37
2019-04-16T19:08:40.800Z,101506.25
2019-04-16T19:11:03.043Z,101506.65
2019-04-16T19:13:36.892Z,101507.25
2019-04-16T19:16:08.618Z,101512.45
2019-04-16T19:18:42.489Z,101520.02
2019-04-16T19:21:19.254Z,101524.69
2019-04-16T19:23:55.936Z,101524.33
2019-04-16T19:26:31.600Z,101527.33
2019-04-16T19:29:05.906Z,101527.19
2019-04-16T19:31:39.555Z,101524.95
2019-04-16T19:34:12.872Z,101526.09
2019-04-16T19:36:46.668Z,101513.37
2019-04-16T19:39:21.222Z,101503.32
2019-04-16T19:41:57.252Z,101511.79
2019-04-16T19:44:28.685Z,101515.73
2019-04-16T19:47:02.190Z,101519.97
2019-04-16T19:49:40.230Z,101527.00
2019-04-16T19:52:14.312Z,101536.09
2019-04-16T19:54:49.695Z,101529.55
2019-04-16T19:57:24.192Z,101536.84
2019-04-16T20:00:01.345Z,101544.41
2019-04-16T20:02:36.776Z,101540.63
2019-04-16T20:05:10.834Z,101548.91
2019-04-16T20:07:44.915Z,101545.06
2019-04-16T20:10:18.232Z,101544.53
2019-04-16T20:12:52.014Z,101545.83
2019-04-16T20:15:35.528Z,101550.50
2019-04-16T20:18:07.334Z,101547.91
2019-04-16T20:20:38.859Z,101551.19
2019-04-16T20:23:10.136Z,101551.78
2019-04-16T20:25:41.703Z,101549.47
2019-04-16T20:28:15.661Z,101564.59
2019-04-16T20:30:48.346Z,101567.35
2019-04-16T20:33:19.591Z,101566.25
2019-04-16T20:35:54.558Z,101565.81
2019-04-16T20:38:29.375Z,101566.58
2019-04-16T20:41:01.848Z,101568.23
2019-04-16T20:43:36.688Z,101563.09
2019-04-16T20:46:09.922Z,101557.88
2019-04-16T20:48:45.041Z,101564.47
2019-04-16T20:51:15.701Z,101559.92
2019-04-16T20:53:46.688Z,101564.19
2019-04-16T20:56:20.474Z,101566.12
2019-04-16T20:58:53.221Z,101564.09
2019-04-16T21:01:33.829Z,101567.96
2019-04-16T21:04:04.676Z,101567.40
2019-04-16T21:06:31.585Z,101572.44
2019-04-16T21:09:06.351Z,101570.39
2019-04-16T21:11:41.163Z,101568.83
2019-04-16T21:14:13.283Z,101567.69
2019-04-16T21:16:44.017Z,101567.77
2019-04-16T21:19:22.813Z,101572.61
2019-04-16T21:21:47.535Z,101574.66
2019-04-16T21:24:18.435Z,101577.47
2019-04-16T21:26:51.252Z,101579.39
2019-04-16T21:29:26.230Z,101578.63
2019-04-16T21:32:04.352Z,101580.36
2019-04-16T21:34:42.582Z,101583.08
2019-04-16T21:37:31.603Z,101587.16
2019-04-16T21:40:05.360Z,101593.63
2019-04-16T21:42:42.202Z,101593.73
2019-04-16T21:45:13.721Z,101598.27
2019-04-16T21:47:45.278Z,101598.96
2019-04-16T21:50:17.081Z,101599.61
2019-04-16T21:52:47.828Z,101598.08
2019-04-16T21:55:18.548Z,101603.20
2019-04-16T21:57:49.291Z,101599.71
2019-04-16T22:00:38.112Z,101600.87
2019-04-16T22:03:15.974Z,101605.34
2019-04-16T22:05:48.346Z,101602.77
2019-04-16T22:08:19.266Z,101602.84
2019-04-16T22:10:51.859Z,101599.05
2019-04-16T22:13:23.545Z,101601.97
2019-04-16T22:15:57.261Z,101604.44
2019-04-16T22:18:28.680Z,101605.39
2019-04-16T22:20:59.686Z,101609.45
2019-04-16T22:23:37.033Z,101610.40
2019-04-16T22:26:10.566Z,101624.15
2019-04-16T22:28:44.149Z,101619.73
2019-04-16T22:31:13.754Z,101623.11
2019-04-16T22:33:44.440Z,101627.75
2019-04-16T22:36:16.310Z,101630.52
2019-04-16T22:38:48.536Z,101627.54
2019-04-16T22:41:23.537Z,101631.39
2019-04-16T22:43:54.935Z,101628.16
2019-04-16T22:46:27.239Z,101634.99
2019-04-16T22:49:00.413Z,101639.25
2019-04-16T22:51:31.145Z,101642.17
2019-04-16T22:54:21.635Z,101648.86
2019-04-16T22:56:53.984Z,101656.73
2019-04-16T22:59:24.615Z,101653.84
2019-04-16T23:01:55.585Z,101642.77
2019-04-16T23:04:32.210Z,101649.66
2019-04-16T23:07:07.064Z,101649.23
2019-04-16T23:09:37.334Z,101657.20
2019-04-16T23:12:12.734Z,101658.94
2019-04-16T23:14:44.391Z,101662.62
2019-04-16T23:17:16.010Z,101668.52
2019-04-16T23:19:46.795Z,101656.42
2019-04-16T23:22:17.454Z,101653.34
2019-04-16T23:24:48.273Z,101651.08
2019-04-16T23:27:19.433Z,101650.13
2019-04-16T23:29:55.741Z,101655.42
2019-04-16T23:32:28.592Z,101654.95
2019-04-16T23:34:59.297Z,101661.27
2019-04-16T23:37:30.116Z,101653.40
2019-04-16T23:40:00.880Z,101647.86
2019-04-16T23:42:33.624Z,101644.81
2019-04-16T23:45:31.163Z,101642.89
2019-04-16T23:48:20.710Z,101644.71
2019-04-16T23:50:53.015Z,101642.86
2019-04-16T23:53:41.567Z,101644.37
2019-04-16T23:56:20.830Z,101637.70
2019-04-16T23:59:01.231Z,101645.38
